createdAt,value
2016-01-30T00:00:55.920Z,19
2016-01-30T00:01:55.859Z,19.02
2016-01-30T00:02:55.832Z,18.96
2016-01-30T00:03:55.771Z,19
2016-01-30T00:04:55.743Z,18.96
2016-01-30T00:05:55.700Z,18.99
2016-01-30T00:06:55.641Z,19
2016-01-30T00:07:55.609Z,18.98
2016-01-30T00:08:55.550Z,19
2016-01-30T00:09:55.523Z,18.99
2016-01-30T00:10:55.479Z,18.98
2016-01-30T00:11:55.435Z,19.02
2016-01-30T00:12:55.391Z,19
2016-01-30T00:13:55.352Z,18.95
2016-01-30T00:14:55.323Z,18.99
2016-01-30T00:15:55.250Z,18.99
2016-01-30T00:16:55.220Z,18.99
2016-01-30T00:17:55.192Z,19.04
2016-01-30T00:18:55.132Z,18.96
2016-01-30T00:19:55.089Z,18.96
2016-01-30T00:20:55.045Z,18.96
2016-01-30T00:21:55.000Z,18.95
2016-01-30T00:22:54.940Z,18.98
2016-01-30T00:23:54.912Z,18.99
2016-01-30T00:24:54.884Z,19
2016-01-30T00:25:54.824Z,18.99
2016-01-30T00:26:54.781Z,18.96
2016-01-30T00:27:54.737Z,19.02
2016-01-30T00:28:54.694Z,18.98
2016-01-30T00:29:54.651Z,19.07
2016-01-30T00:30:54.622Z,19
2016-01-30T00:31:54.562Z,18.92
2016-01-30T00:32:54.506Z,19.04
2016-01-30T00:33:54.478Z,18.99
2016-01-30T00:34:54.450Z,18.99
2016-01-30T00:35:54.375Z,19
2016-01-30T00:36:54.353Z,18.96
2016-01-30T00:37:54.294Z,18.99
2016-01-30T00:38:54.265Z,19
2016-01-30T00:39:54.221Z,19
2016-01-30T00:40:54.161Z,19
2016-01-30T00:41:54.116Z,19
2016-01-30T00:42:54.074Z,19.02
2016-01-30T00:43:54.046Z,18.99
2016-01-30T00:44:54.001Z,18.95
2016-01-30T00:45:53.973Z,18.9
2016-01-30T00:46:53.904Z,18.98
2016-01-30T00:47:53.875Z,19.02
2016-01-30T00:48:53.831Z,19.02
2016-01-30T00:49:53.771Z,18.96
2016-01-30T00:50:53.742Z,18.98
2016-01-30T00:51:53.684Z,19
2016-01-30T00:52:53.687Z,18.95
2016-01-30T00:53:53.596Z,18.96
2016-01-30T00:54:53.552Z,18.99
2016-01-30T00:55:53.508Z,18.99
2016-01-30T00:56:53.479Z,18.95
2016-01-30T00:57:53.419Z,18.99
2016-01-30T00:58:53.390Z,18.98
2016-01-30T00:59:53.346Z,18.96
2016-01-30T01:00:53.302Z,18.98
2016-01-30T01:01:53.246Z,18.9
2016-01-30T01:02:53.201Z,18.99
2016-01-30T01:03:53.007Z,18.99
2016-01-30T01:04:53.124Z,19.02
2016-01-30T01:05:53.080Z,18.95
2016-01-30T01:06:53.039Z,19
2016-01-30T01:07:53.011Z,18.96
2016-01-30T01:08:52.951Z,18.98
2016-01-30T01:09:52.897Z,18.92
2016-01-30T01:10:52.884Z,18.96
2016-01-30T01:11:52.809Z,18.93
2016-01-30T01:12:52.780Z,18.95
2016-01-30T01:13:52.736Z,18.95
2016-01-30T01:14:52.693Z,18.98
2016-01-30T01:15:52.648Z,18.98
2016-01-30T01:16:52.592Z,18.98
2016-01-30T01:17:52.548Z,18.96
2016-01-30T01:18:52.520Z,18.98
2016-01-30T01:19:52.475Z,18.93
2016-01-30T01:20:52.432Z,18.96
2016-01-30T01:21:52.388Z,18.93
2016-01-30T01:22:52.344Z,18.99
2016-01-30T01:23:52.315Z,18.92
2016-01-30T01:24:52.257Z,18.96
2016-01-30T01:25:52.212Z,18.96
2016-01-30T01:26:52.168Z,18.96
2016-01-30T01:27:52.140Z,18.92
2016-01-30T01:28:52.080Z,18.88
2016-01-30T01:29:52.036Z,18.93
2016-01-30T01:30:52.008Z,18.93
2016-01-30T01:31:51.949Z,18.86
2016-01-30T01:32:51.904Z,18.96
2016-01-30T01:33:51.877Z,18.95
2016-01-30T01:34:51.833Z,18.96
2016-01-30T01:35:51.622Z,18.95
2016-01-30T01:36:51.735Z,18.95
2016-01-30T01:37:51.690Z,18.88
2016-01-30T01:38:51.662Z,18.84
2016-01-30T01:39:51.604Z,18.92
2016-01-30T01:40:51.559Z,18.96
2016-01-30T01:41:51.530Z,18.95
2016-01-30T01:42:51.471Z,18.96
2016-01-30T01:43:51.421Z,18.93
2016-01-30T01:44:51.393Z,18.98
2016-01-30T01:45:51.349Z,18.9
2016-01-30T01:46:51.305Z,18.89
2016-01-30T01:47:51.246Z,18.89
2016-01-30T01:48:51.217Z,18.93
2016-01-30T01:49:51.205Z,18.95
2016-01-30T01:50:51.114Z,18.98
2016-01-30T01:51:51.086Z,18.96
2016-01-30T01:52:51.057Z,18.8
2016-01-30T01:53:50.998Z,18.9
2016-01-30T01:54:50.938Z,18.86
2016-01-30T01:55:50.909Z,18.83
2016-01-30T01:56:50.879Z,18.92
2016-01-30T01:57:50.819Z,18.88
2016-01-30T01:58:50.761Z,18.95
2016-01-30T01:59:50.748Z,18.92
2016-01-30T02:00:50.689Z,18.96
2016-01-30T02:01:50.644Z,18.88
2016-01-30T02:02:50.600Z,18.9
2016-01-30T02:03:50.556Z,18.84
2016-01-30T02:04:50.512Z,18.95
2016-01-30T02:05:50.467Z,18.93
2016-01-30T02:06:50.425Z,18.83
2016-01-30T02:07:50.382Z,18.89
2016-01-30T02:08:50.353Z,18.86
2016-01-30T02:09:50.293Z,18.81
2016-01-30T02:10:50.249Z,18.86
2016-01-30T02:11:50.220Z,18.93
2016-01-30T02:12:50.161Z,18.93
2016-01-30T02:13:50.116Z,18.92
2016-01-30T02:14:50.089Z,18.89
2016-01-30T02:15:50.030Z,18.95
2016-01-30T02:16:49.986Z,18.81
2016-01-30T02:17:49.957Z,18.86
2016-01-30T02:18:49.898Z,18.95
2016-01-30T02:19:49.870Z,18.89
2016-01-30T02:20:49.825Z,18.92
2016-01-30T02:21:49.765Z,18.96
2016-01-30T02:22:49.721Z,18.89
2016-01-30T02:23:49.708Z,18.88
2016-01-30T02:24:49.633Z,18.84
2016-01-30T02:25:49.590Z,18.84
2016-01-30T02:26:49.561Z,18.89
2016-01-30T02:27:49.376Z,18.81
2016-01-30T02:28:49.457Z,18.89
2016-01-30T02:29:49.431Z,18.84
2016-01-30T02:30:49.387Z,18.84
2016-01-30T02:31:49.327Z,18.86
2016-01-30T02:32:49.298Z,18.9
2016-01-30T02:33:49.257Z,18.86
2016-01-30T02:34:49.213Z,18.92
2016-01-30T02:35:49.153Z,18.88
2016-01-30T02:36:49.109Z,18.8
2016-01-30T02:37:49.083Z,18.89
2016-01-30T02:38:49.038Z,18.93
2016-01-30T02:39:48.994Z,18.95
2016-01-30T02:40:48.933Z,18.88
2016-01-30T02:41:48.921Z,18.88
2016-01-30T02:42:48.862Z,18.88
2016-01-30T02:43:48.802Z,18.86
2016-01-30T02:44:48.775Z,18.8
2016-01-30T02:45:48.762Z,18.95
2016-01-30T02:46:48.670Z,18.92
2016-01-30T02:47:48.626Z,18.89
2016-01-30T02:48:48.602Z,18.84
2016-01-30T02:49:48.542Z,18.83
2016-01-30T02:50:48.498Z,18.88
2016-01-30T02:51:48.454Z,18.86
2016-01-30T02:52:48.425Z,18.89
2016-01-30T02:53:48.381Z,18.88
2016-01-30T02:54:48.327Z,18.89
2016-01-30T02:55:48.257Z,18.83
2016-01-30T02:56:48.218Z,18.93
2016-01-30T02:57:48.163Z,18.9
2016-01-30T02:58:48.108Z,18.92
2016-01-30T02:59:48.078Z,18.89
2016-01-30T03:00:48.015Z,18.86
2016-01-30T03:01:47.951Z,18.84
2016-01-30T03:02:47.920Z,18.83
2016-01-30T03:03:47.889Z,18.83
2016-01-30T03:04:47.828Z,18.81
2016-01-30T03:05:47.782Z,18.88
2016-01-30T03:06:47.736Z,18.86
2016-01-30T03:07:47.694Z,18.84
2016-01-30T03:08:47.493Z,18.78
2016-01-30T03:09:47.589Z,18.93
2016-01-30T03:10:47.544Z,18.86
2016-01-30T03:11:47.518Z,18.84
2016-01-30T03:12:47.473Z,18.83
2016-01-30T03:13:47.416Z,18.86
2016-01-30T03:14:47.216Z,18.86
2016-01-30T03:15:47.188Z,18.92
2016-01-30T03:16:47.299Z,18.93
2016-01-30T03:17:47.240Z,18.88
2016-01-30T03:18:47.196Z,18.88
2016-01-30T03:19:47.183Z,18.89
2016-01-30T03:20:47.124Z,18.86
2016-01-30T03:21:47.065Z,18.86
2016-01-30T03:22:47.022Z,18.8
2016-01-30T03:23:46.978Z,18.86
2016-01-30T03:24:46.950Z,18.89
2016-01-30T03:25:46.906Z,18.83
2016-01-30T03:26:46.878Z,18.8
2016-01-30T03:27:46.646Z,18.8
2016-01-30T03:28:46.775Z,18.83
2016-01-30T03:29:46.730Z,18.8
2016-01-30T03:30:46.674Z,18.95
2016-01-30T03:31:46.630Z,18.92
2016-01-30T03:32:46.599Z,18.89
2016-01-30T03:33:46.570Z,18.88
2016-01-30T03:34:46.497Z,18.88
2016-01-30T03:35:46.468Z,18.86
2016-01-30T03:36:46.410Z,18.83
2016-01-30T03:37:46.366Z,18.98
2016-01-30T03:38:46.338Z,18.9
2016-01-30T03:39:46.284Z,18.89
2016-01-30T03:40:46.256Z,18.8
2016-01-30T03:41:46.196Z,18.89
2016-01-30T03:42:46.152Z,18.88
2016-01-30T03:43:46.124Z,18.89
2016-01-30T03:44:46.080Z,18.89
2016-01-30T03:45:46.052Z,18.92
2016-01-30T03:46:45.992Z,18.83
2016-01-30T03:47:45.933Z,18.92
2016-01-30T03:48:45.936Z,18.84
2016-01-30T03:49:45.908Z,18.88
2016-01-30T03:50:45.801Z,18.9
2016-01-30T03:51:45.772Z,18.83
2016-01-30T03:52:45.713Z,18.93
2016-01-30T03:53:45.684Z,18.99
2016-01-30T03:54:45.625Z,18.83
2016-01-30T03:55:45.596Z,18.88
2016-01-30T03:56:45.552Z,18.96
2016-01-30T03:57:45.492Z,18.9
2016-01-30T03:58:45.448Z,18.95
2016-01-30T03:59:45.403Z,18.98
2016-01-30T04:00:45.346Z,18.81
2016-01-30T04:01:45.318Z,18.89
2016-01-30T04:02:45.288Z,18.9
2016-01-30T04:03:45.245Z,18.86
2016-01-30T04:04:45.186Z,18.88
2016-01-30T04:05:45.142Z,18.95
2016-01-30T04:06:45.114Z,18.9
2016-01-30T04:07:45.053Z,18.89
2016-01-30T04:08:45.028Z,18.83
2016-01-30T04:09:44.984Z,18.86
2016-01-30T04:10:44.926Z,18.84
2016-01-30T04:11:44.882Z,18.88
2016-01-30T04:12:44.869Z,18.92
2016-01-30T04:13:44.809Z,18.86
2016-01-30T04:14:44.749Z,18.84
2016-01-30T04:15:44.721Z,18.81
2016-01-30T04:16:44.660Z,18.89
2016-01-30T04:17:44.632Z,18.86
2016-01-30T04:18:44.588Z,18.83
2016-01-30T04:19:44.544Z,18.81
2016-01-30T04:20:44.515Z,18.86
2016-01-30T04:21:44.456Z,18.89
2016-01-30T04:22:44.411Z,18.84
2016-01-30T04:23:44.371Z,18.88
2016-01-30T04:24:44.327Z,18.84
2016-01-30T04:25:44.283Z,18.9
2016-01-30T04:26:44.238Z,18.89
2016-01-30T04:27:44.199Z,18.86
2016-01-30T04:28:44.140Z,18.88
2016-01-30T04:29:44.095Z,18.86
2016-01-30T04:30:44.067Z,18.86
2016-01-30T04:31:44.010Z,18.86
2016-01-30T04:32:43.969Z,18.86
2016-01-30T04:33:43.912Z,18.86
2016-01-30T04:34:43.884Z,18.86
2016-01-30T04:35:43.839Z,18.84
2016-01-30T04:36:43.795Z,18.84
2016-01-30T04:37:43.751Z,18.89
2016-01-30T04:38:43.722Z,18.93
2016-01-30T04:39:43.663Z,18.89
2016-01-30T04:40:43.619Z,18.92
2016-01-30T04:41:43.591Z,18.95
2016-01-30T04:42:43.551Z,18.96
2016-01-30T04:43:43.491Z,18.9
2016-01-30T04:44:43.463Z,18.83
2016-01-30T04:45:43.403Z,18.84
2016-01-30T04:46:43.375Z,18.83
2016-01-30T04:47:43.316Z,18.86
2016-01-30T04:48:43.271Z,18.93
2016-01-30T04:49:43.243Z,18.96
2016-01-30T04:50:43.183Z,18.98
2016-01-30T04:51:43.139Z,18.96
2016-01-30T04:52:43.095Z,18.89
2016-01-30T04:53:43.066Z,18.95
2016-01-30T04:54:43.007Z,18.88
2016-01-30T04:55:42.965Z,18.88
2016-01-30T04:56:42.935Z,18.93
2016-01-30T04:57:42.891Z,18.9
2016-01-30T04:58:42.831Z,18.98
2016-01-30T04:59:42.789Z,18.92
2016-01-30T05:00:42.761Z,18.88
2016-01-30T05:01:42.735Z,18.92
2016-01-30T05:02:42.660Z,18.93
2016-01-30T05:03:42.616Z,18.99
2016-01-30T05:04:42.573Z,18.93
2016-01-30T05:05:42.530Z,18.92
2016-01-30T05:06:42.486Z,18.84
2016-01-30T05:07:42.442Z,18.89
2016-01-30T05:08:42.414Z,18.86
2016-01-30T05:09:42.356Z,18.98
2016-01-30T05:10:42.312Z,18.92
2016-01-30T05:11:42.112Z,18.88
2016-01-30T05:12:42.224Z,18.98
2016-01-30T05:13:42.184Z,18.96
2016-01-30T05:14:42.139Z,18.84
2016-01-30T05:15:42.095Z,18.89
2016-01-30T05:16:42.048Z,18.92
2016-01-30T05:17:42.003Z,18.92
2016-01-30T05:18:41.977Z,18.86
2016-01-30T05:19:41.916Z,18.88
2016-01-30T05:20:41.877Z,18.83
2016-01-30T05:21:41.833Z,18.83
2016-01-30T05:22:41.790Z,18.8
2016-01-30T05:23:41.745Z,18.83
2016-01-30T05:24:41.701Z,18.8
2016-01-30T05:25:41.656Z,18.9
2016-01-30T05:26:41.628Z,18.89
2016-01-30T05:27:41.599Z,18.84
2016-01-30T05:28:41.523Z,18.84
2016-01-30T05:29:41.496Z,18.92
2016-01-30T05:30:41.451Z,18.92
2016-01-30T05:31:41.393Z,18.95
2016-01-30T05:32:41.349Z,18.93
2016-01-30T05:33:41.320Z,18.9
2016-01-30T05:34:41.261Z,18.89
2016-01-30T05:35:41.216Z,18.84
2016-01-30T05:36:41.188Z,18.95
2016-01-30T05:37:41.129Z,18.92
2016-01-30T05:38:41.084Z,18.8
2016-01-30T05:39:41.057Z,18.92
2016-01-30T05:40:40.998Z,18.84
2016-01-30T05:41:40.969Z,18.84
2016-01-30T05:42:40.925Z,18.95
2016-01-30T05:43:40.879Z,18.93
2016-01-30T05:44:40.834Z,18.96
2016-01-30T05:45:40.790Z,18.9
2016-01-30T05:46:40.746Z,18.92
2016-01-30T05:47:40.688Z,18.92
2016-01-30T05:48:40.659Z,18.92
2016-01-30T05:49:40.615Z,18.88
2016-01-30T05:50:40.586Z,18.8
2016-01-30T05:51:40.528Z,18.89
2016-01-30T05:52:40.484Z,18.88
2016-01-30T05:53:40.455Z,18.93
2016-01-30T05:54:39.645Z,18.98
2016-01-30T05:55:40.351Z,18.9
2016-01-30T05:56:40.325Z,18.8
2016-01-30T05:57:40.281Z,18.81
2016-01-30T05:58:40.222Z,18.86
2016-01-30T05:59:40.179Z,18.96
2016-01-30T06:00:40.134Z,18.89
2016-01-30T06:01:40.090Z,18.93
2016-01-30T06:02:40.046Z,18.86
2016-01-30T06:03:40.017Z,18.93
2016-01-30T06:04:39.973Z,18.86
2016-01-30T06:05:39.913Z,18.92
2016-01-30T06:06:39.872Z,18.92
2016-01-30T06:07:39.828Z,18.9
2016-01-30T06:08:39.800Z,18.86
2016-01-30T06:09:39.755Z,18.93
2016-01-30T06:10:39.697Z,18.95
2016-01-30T06:11:39.669Z,18.83
2016-01-30T06:12:39.624Z,18.93
2016-01-30T06:13:39.580Z,18.98
2016-01-30T06:14:39.520Z,18.98
2016-01-30T06:15:39.482Z,18.86
2016-01-30T06:16:39.438Z,18.93
2016-01-30T06:17:39.398Z,18.88
2016-01-30T06:18:39.355Z,18.95
2016-01-30T06:19:39.342Z,18.83
2016-01-30T06:20:39.267Z,18.92
2016-01-30T06:21:39.224Z,18.92
2016-01-30T06:22:39.179Z,18.84
2016-01-30T06:23:39.135Z,18.83
2016-01-30T06:24:39.107Z,18.92
2016-01-30T06:25:39.047Z,18.95
2016-01-30T06:26:39.004Z,18.92
2016-01-30T06:27:38.960Z,18.95
2016-01-30T06:28:38.915Z,18.95
2016-01-30T06:29:38.872Z,18.93
2016-01-30T06:30:38.844Z,18.92
2016-01-30T06:31:38.799Z,18.92
2016-01-30T06:32:38.739Z,18.95
2016-01-30T06:33:38.727Z,18.96
2016-01-30T06:34:38.667Z,18.95
2016-01-30T06:35:38.639Z,18.99
2016-01-30T06:36:38.578Z,18.83
2016-01-30T06:37:38.519Z,18.89
2016-01-30T06:38:38.495Z,18.95
2016-01-30T06:39:38.434Z,18.95
2016-01-30T06:40:38.390Z,18.98
2016-01-30T06:41:38.409Z,18.83
2016-01-30T06:42:38.301Z,18.95
2016-01-30T06:43:38.258Z,18.9
2016-01-30T06:44:38.214Z,18.92
2016-01-30T06:45:38.218Z,18.95
2016-01-30T06:46:38.127Z,18.9
2016-01-30T06:47:38.083Z,18.92
2016-01-30T06:48:38.059Z,18.92
2016-01-30T06:49:37.999Z,18.98
2016-01-30T06:50:37.971Z,18.96
2016-01-30T06:51:37.910Z,18.84
2016-01-30T06:52:37.867Z,18.92
2016-01-30T06:53:37.839Z,18.96
2016-01-30T06:54:37.795Z,18.9
2016-01-30T06:55:37.735Z,18.96
2016-01-30T06:56:37.707Z,18.86
2016-01-30T06:57:37.663Z,18.95
2016-01-30T06:58:37.619Z,18.93
2016-01-30T06:59:37.558Z,18.95
2016-01-30T07:00:37.530Z,18.98
2016-01-30T07:01:37.486Z,18.98
2016-01-30T07:02:37.441Z,18.92
2016-01-30T07:03:37.397Z,18.8
2016-01-30T07:04:37.369Z,18.86
2016-01-30T07:05:37.310Z,18.89
2016-01-30T07:06:37.263Z,18.84
2016-01-30T07:07:37.219Z,18.84
2016-01-30T07:08:37.175Z,18.8
2016-01-30T07:09:37.147Z,18.8
2016-01-30T07:10:37.087Z,18.92
2016-01-30T07:11:37.042Z,18.99
2016-01-30T07:12:37.015Z,18.93
2016-01-30T07:13:36.956Z,18.86
2016-01-30T07:14:36.927Z,18.9
2016-01-30T07:15:36.884Z,18.96
2016-01-30T07:16:36.845Z,18.86
2016-01-30T07:17:36.783Z,18.88
2016-01-30T07:18:36.740Z,18.89
2016-01-30T07:19:36.695Z,18.8
2016-01-30T07:20:36.651Z,18.86
2016-01-30T07:21:36.609Z,18.88
2016-01-30T07:22:36.567Z,18.84
2016-01-30T07:23:36.539Z,18.83
2016-01-30T07:24:36.479Z,18.95
2016-01-30T07:25:36.435Z,18.96
2016-01-30T07:26:36.391Z,18.9
2016-01-30T07:27:36.347Z,18.89
2016-01-30T07:28:36.303Z,18.98
2016-01-30T07:29:36.258Z,18.92
2016-01-30T07:30:36.215Z,18.86
2016-01-30T07:31:36.176Z,18.86
2016-01-30T07:32:36.131Z,18.84
2016-01-30T07:33:36.087Z,18.95
2016-01-30T07:34:36.043Z,18.84
2016-01-30T07:35:36.029Z,18.9
2016-01-30T07:36:35.953Z,18.96
2016-01-30T07:37:35.910Z,18.93
2016-01-30T07:38:35.865Z,18.95
2016-01-30T07:39:35.821Z,18.95
2016-01-30T07:40:35.777Z,18.89
2016-01-30T07:41:35.752Z,18.84
2016-01-30T07:42:35.693Z,18.84
2016-01-30T07:43:35.679Z,18.81
2016-01-30T07:44:35.604Z,18.89
2016-01-30T07:45:35.561Z,18.9
2016-01-30T07:46:35.540Z,18.83
2016-01-30T07:47:35.465Z,18.93
2016-01-30T07:48:35.421Z,18.83
2016-01-30T07:49:35.393Z,18.81
2016-01-30T07:50:35.364Z,18.88
2016-01-30T07:51:35.289Z,18.86
2016-01-30T07:52:35.245Z,18.89
2016-01-30T07:53:35.200Z,18.92
2016-01-30T07:54:35.173Z,18.93
2016-01-30T07:55:35.113Z,18.96
2016-01-30T07:56:35.070Z,18.93
2016-01-30T07:57:35.056Z,18.88
2016-01-30T07:58:34.981Z,18.99
2016-01-30T07:59:34.937Z,18.89
2016-01-30T08:00:34.908Z,18.83
2016-01-30T08:01:34.895Z,18.93
2016-01-30T08:02:34.820Z,18.81
2016-01-30T08:03:34.775Z,18.96
2016-01-30T08:04:34.731Z,18.9
2016-01-30T08:05:34.688Z,18.98
2016-01-30T08:06:34.643Z,18.84
2016-01-30T08:07:34.599Z,18.92
2016-01-30T08:08:34.555Z,18.84
2016-01-30T08:09:34.512Z,18.8
2016-01-30T08:10:34.467Z,18.93
2016-01-30T08:11:34.423Z,18.93
2016-01-30T08:12:34.223Z,18.81
2016-01-30T08:13:34.352Z,18.84
2016-01-30T08:14:34.293Z,18.86
2016-01-30T08:15:34.248Z,18.86
2016-01-30T08:16:34.223Z,18.83
2016-01-30T08:17:34.163Z,18.9
2016-01-30T08:18:34.119Z,18.8
2016-01-30T08:19:34.091Z,18.81
2016-01-30T08:20:34.030Z,18.92
2016-01-30T08:21:33.986Z,18.89
2016-01-30T08:22:33.942Z,18.89
2016-01-30T08:23:33.913Z,18.86
2016-01-30T08:24:33.869Z,18.96
2016-01-30T08:25:33.809Z,18.92
2016-01-30T08:26:33.781Z,18.89
2016-01-30T08:27:33.737Z,18.81
2016-01-30T08:28:33.696Z,18.86
2016-01-30T08:29:33.636Z,18.89
2016-01-30T08:30:33.592Z,18.89
2016-01-30T08:31:33.564Z,18.8
2016-01-30T08:32:33.498Z,18.83
2016-01-30T08:33:33.470Z,18.96
2016-01-30T08:34:33.425Z,18.95
2016-01-30T08:35:33.365Z,18.88
2016-01-30T08:36:33.337Z,18.88
2016-01-30T08:37:33.323Z,18.92
2016-01-30T08:38:33.248Z,18.95
2016-01-30T08:39:33.204Z,18.96
2016-01-30T08:40:33.192Z,18.98
2016-01-30T08:41:33.115Z,18.93
2016-01-30T08:42:33.102Z,18.99
2016-01-30T08:43:33.027Z,19.07
2016-01-30T08:44:32.983Z,19.02
2016-01-30T08:45:32.969Z,19.14
2016-01-30T08:46:32.910Z,19.15
2016-01-30T08:47:32.693Z,19.16
2016-01-30T08:48:32.821Z,19.14
2016-01-30T08:49:32.825Z,19.14
2016-01-30T08:50:32.719Z,19.14
2016-01-30T08:51:32.678Z,19.14
2016-01-30T08:52:32.664Z,18.86
2016-01-30T08:53:32.586Z,19.14
2016-01-30T08:54:32.574Z,18.99
2016-01-30T08:55:32.500Z,18.99
2016-01-30T08:56:32.455Z,18.89
2016-01-30T08:57:32.426Z,18.84
2016-01-30T08:58:32.382Z,18.83
2016-01-30T08:59:32.323Z,18.86
2016-01-30T09:00:32.279Z,18.75
2016-01-30T09:01:32.266Z,18.86
2016-01-30T09:02:32.190Z,18.62
2016-01-30T09:03:32.146Z,18.58
2016-01-30T09:04:32.117Z,18.58
2016-01-30T09:05:32.090Z,18.77
2016-01-30T09:06:32.034Z,18.81
2016-01-30T09:07:31.974Z,19
2016-01-30T09:08:31.945Z,18.99
2016-01-30T09:09:31.901Z,19
2016-01-30T09:10:31.857Z,19.04
2016-01-30T09:11:31.797Z,18.99
2016-01-30T09:12:31.755Z,19
2016-01-30T09:13:31.718Z,18.99
2016-01-30T09:14:31.690Z,18.99
2016-01-30T09:15:31.631Z,18.99
2016-01-30T09:16:31.602Z,19
2016-01-30T09:17:31.542Z,18.9
2016-01-30T09:18:31.498Z,18.92
2016-01-30T09:19:31.486Z,18.78
2016-01-30T09:20:31.426Z,18.84
2016-01-30T09:21:31.382Z,18.8
2016-01-30T09:22:31.353Z,18.86
2016-01-30T09:23:31.278Z,18.9
2016-01-30T09:24:31.249Z,18.81
2016-01-30T09:25:31.192Z,18.83
2016-01-30T09:26:31.148Z,18.81
2016-01-30T09:27:31.118Z,18.83
2016-01-30T09:28:31.090Z,18.86
2016-01-30T09:29:31.016Z,18.8
2016-01-30T09:30:30.972Z,18.89
2016-01-30T09:31:30.944Z,18.92
2016-01-30T09:32:30.900Z,18.9
2016-01-30T09:33:30.856Z,19
2016-01-30T09:34:30.802Z,18.98
2016-01-30T09:35:30.773Z,18.98
2016-01-30T09:36:30.775Z,18.92
2016-01-30T09:37:30.685Z,18.99
2016-01-30T09:38:30.628Z,18.96
2016-01-30T09:39:30.599Z,19
2016-01-30T09:40:30.555Z,18.99
2016-01-30T09:41:30.495Z,18.98
2016-01-30T09:42:30.450Z,18.99
2016-01-30T09:43:30.422Z,19.11
2016-01-30T09:44:30.225Z,19.16
2016-01-30T09:45:30.322Z,19.12
2016-01-30T09:46:30.122Z,19.11
2016-01-30T09:47:30.249Z,19.14
2016-01-30T09:48:30.189Z,19.12
2016-01-30T09:49:30.160Z,19.16
2016-01-30T09:50:29.961Z,19.11
2016-01-30T09:51:30.088Z,19.26
2016-01-30T09:52:30.012Z,19.22
2016-01-30T09:53:29.984Z,19.21
2016-01-30T09:54:29.940Z,19.22
2016-01-30T09:55:29.897Z,19.24
2016-01-30T09:56:29.852Z,19.22
2016-01-30T09:57:29.810Z,19.22
2016-01-30T09:58:29.766Z,19.34
2016-01-30T09:59:29.721Z,19.27
2016-01-30T10:00:29.662Z,19.33
2016-01-30T10:01:29.633Z,19.26
2016-01-30T10:02:29.588Z,19.27
2016-01-30T10:03:29.248Z,19.27
2016-01-30T10:04:29.516Z,19.33
2016-01-30T10:05:29.504Z,19.4
2016-01-30T10:06:29.429Z,19.29
2016-01-30T10:07:29.368Z,19.26
2016-01-30T10:08:29.323Z,19.37
2016-01-30T10:09:29.295Z,19.34
2016-01-30T10:10:29.251Z,19.29
2016-01-30T10:11:29.206Z,19.31
2016-01-30T10:12:29.163Z,19.31
2016-01-30T10:13:29.135Z,19.31
2016-01-30T10:14:29.091Z,19.29
2016-01-30T10:15:29.031Z,19.31
2016-01-30T10:16:28.995Z,19.33
2016-01-30T10:17:28.998Z,19.34
2016-01-30T10:18:28.954Z,19.34
2016-01-30T10:19:28.924Z,19.31
2016-01-30T10:20:28.818Z,19.36
2016-01-30T10:21:28.758Z,19.36
2016-01-30T10:22:28.729Z,19.45
2016-01-30T10:23:28.701Z,19.49
2016-01-30T10:24:28.642Z,19.4
2016-01-30T10:25:28.595Z,19.41
2016-01-30T10:26:28.551Z,19.49
2016-01-30T10:27:28.522Z,19.4
2016-01-30T10:28:28.556Z,19.48
2016-01-30T10:29:28.418Z,19.37
2016-01-30T10:30:28.374Z,19.45
2016-01-30T10:31:28.362Z,19.4
2016-01-30T10:32:28.302Z,19.44
2016-01-30T10:33:28.304Z,19.54
2016-01-30T10:34:28.213Z,19.51
2016-01-30T10:35:28.186Z,19.51
2016-01-30T10:36:28.127Z,19.47
2016-01-30T10:37:28.083Z,19.56
2016-01-30T10:38:28.054Z,19.48
2016-01-30T10:39:28.010Z,19.55
2016-01-30T10:40:27.941Z,19.58
2016-01-30T10:41:27.913Z,19.49
2016-01-30T10:42:27.868Z,19.55
2016-01-30T10:43:27.840Z,19.55
2016-01-30T10:44:27.781Z,19.55
2016-01-30T10:45:27.742Z,19.51
2016-01-30T10:46:27.699Z,19.48
2016-01-30T10:47:27.654Z,19.54
2016-01-30T10:48:27.611Z,19.54
2016-01-30T10:49:27.582Z,19.54
2016-01-30T10:50:27.525Z,19.55
2016-01-30T10:51:27.480Z,19.63
2016-01-30T10:52:27.452Z,19.51
2016-01-30T10:53:27.392Z,19.52
2016-01-30T10:54:27.351Z,19.58
2016-01-30T10:55:27.417Z,19.51
2016-01-30T10:56:27.278Z,19.64
2016-01-30T10:57:27.219Z,19.7
2016-01-30T10:58:27.175Z,19.71
2016-01-30T10:59:27.148Z,19.77
2016-01-30T11:00:27.088Z,19.77
2016-01-30T11:01:27.044Z,19.82
2016-01-30T11:02:27.016Z,19.91
2016-01-30T11:03:26.988Z,19.95
2016-01-30T11:04:26.913Z,20.02
2016-01-30T11:05:26.872Z,20.02
2016-01-30T11:06:26.842Z,20.18
2016-01-30T11:07:26.783Z,20.19
2016-01-30T11:08:26.739Z,20.19
2016-01-30T11:09:26.695Z,20.09
2016-01-30T11:10:26.683Z,20.11
2016-01-30T11:11:26.639Z,20.11
2016-01-30T11:12:26.578Z,20.11
2016-01-30T11:13:26.628Z,20.14
2016-01-30T11:14:26.493Z,20.11
2016-01-30T11:15:26.620Z,20.07
2016-01-30T11:16:26.420Z,20.16
2016-01-30T11:17:26.363Z,20.13
2016-01-30T11:18:26.336Z,20.11
2016-01-30T11:19:26.292Z,20.18
2016-01-30T11:20:26.217Z,20.18
2016-01-30T11:21:26.188Z,19.82
2016-01-30T11:22:25.988Z,19.99
2016-01-30T11:23:26.100Z,19.95
2016-01-30T11:24:26.055Z,20.03
2016-01-30T11:25:26.012Z,20.16
2016-01-30T11:26:25.984Z,20.13
2016-01-30T11:27:25.939Z,20.16
2016-01-30T11:28:25.897Z,20.11
2016-01-30T11:29:25.837Z,20.1
2016-01-30T11:30:25.808Z,20.13
2016-01-30T11:31:25.748Z,20.16
2016-01-30T11:32:25.704Z,20.19
2016-01-30T11:33:25.677Z,20.19
2016-01-30T11:34:25.649Z,20.13
2016-01-30T11:35:25.605Z,20.1
2016-01-30T11:36:25.560Z,20.13
2016-01-30T11:37:25.503Z,20.13
2016-01-30T11:38:25.459Z,20.14
2016-01-30T11:39:25.414Z,20.11
2016-01-30T11:40:25.386Z,20.13
2016-01-30T11:41:25.345Z,20.11
2016-01-30T11:42:25.284Z,20.14
2016-01-30T11:43:25.240Z,20.14
2016-01-30T11:44:25.196Z,20.18
2016-01-30T11:45:25.152Z,20.13
2016-01-30T11:46:25.123Z,20.19
2016-01-30T11:47:25.081Z,20.19
2016-01-30T11:48:25.022Z,20.25
2016-01-30T11:49:24.994Z,20.16
2016-01-30T11:50:24.965Z,20.14
2016-01-30T11:51:24.905Z,20.19
2016-01-30T11:52:24.861Z,20.19
2016-01-30T11:53:24.817Z,20.19
2016-01-30T11:54:24.758Z,20.16
2016-01-30T11:55:24.728Z,20.21
2016-01-30T11:56:24.686Z,20.11
2016-01-30T11:57:24.643Z,20.22
2016-01-30T11:58:24.613Z,20.14
2016-01-30T11:59:24.554Z,20.18
2016-01-30T12:00:24.500Z,20.13
2016-01-30T12:01:24.457Z,20.18
2016-01-30T12:02:24.381Z,20.16
2016-01-30T12:03:24.322Z,20.24
2016-01-30T12:04:24.263Z,20.19
2016-01-30T12:05:24.229Z,20.11
2016-01-30T12:06:24.179Z,20.19
2016-01-30T12:07:24.130Z,20.18
2016-01-30T12:08:24.065Z,20.14
2016-01-30T12:09:24.015Z,20.24
2016-01-30T12:10:23.968Z,20.28
2016-01-30T12:11:23.939Z,20.26
2016-01-30T12:12:23.892Z,20.24
2016-01-30T12:13:23.862Z,20.26
2016-01-30T12:14:23.785Z,20.28
2016-01-30T12:15:23.741Z,18.62
2016-01-30T12:16:23.711Z,19.11
2016-01-30T12:17:23.661Z,19.55
2016-01-30T12:18:23.615Z,19.88
2016-01-30T12:19:23.570Z,20
2016-01-30T12:20:23.527Z,20.04
2016-01-30T12:21:23.482Z,20.14
2016-01-30T12:22:23.469Z,20.14
2016-01-30T12:23:23.392Z,20.09
2016-01-30T12:24:23.350Z,20.19
2016-01-30T12:25:23.305Z,20.06
2016-01-30T12:26:23.262Z,20.03
2016-01-30T12:27:23.218Z,20.02
2016-01-30T12:28:23.174Z,20
2016-01-30T12:29:23.127Z,20.03
2016-01-30T12:30:23.082Z,19.94
2016-01-30T12:31:23.054Z,20.06
2016-01-30T12:32:23.010Z,20.02
2016-01-30T12:33:22.982Z,20
2016-01-30T12:34:22.984Z,20.02
2016-01-30T12:35:22.878Z,19.92
2016-01-30T12:36:22.819Z,19.99
2016-01-30T12:37:22.790Z,20
2016-01-30T12:38:22.746Z,19.94
2016-01-30T12:39:22.750Z,19.91
2016-01-30T12:40:22.642Z,20
2016-01-30T12:41:22.614Z,19.91
2016-01-30T12:42:22.586Z,19.99
2016-01-30T12:43:22.526Z,20.02
2016-01-30T12:44:22.529Z,19.92
2016-01-30T12:45:22.439Z,19.85
2016-01-30T12:46:22.395Z,19.94
2016-01-30T12:47:22.350Z,19.81
2016-01-30T12:48:22.454Z,19.89
2016-01-30T12:49:22.286Z,19.86
2016-01-30T12:50:22.210Z,19.95
2016-01-30T12:51:22.167Z,19.94
2016-01-30T12:52:22.123Z,19.95
2016-01-30T12:53:22.094Z,19.94
2016-01-30T12:54:22.035Z,19.96
2016-01-30T12:55:22.006Z,19.84
2016-01-30T12:56:21.977Z,19.86
2016-01-30T12:57:21.934Z,19.84